Thursday, January 18, 2018, 10:58 PM EST
Back to Local

KCON, Concord, Concord Municipal Airport

Location: Concord, NH, United States Lat: 43.195
Local Time: 10:58 PM EST ( 3:58 GMT) Lon: -71.501
Time Zone: US/Eastern Elev: 344 ft

Show me the last for .
Show Decoded

2018-01-18 22:44 METAR KCON 190344Z AUTO 00000KT 4SM BR CLR M12/M14 A2993 RMK AO2 I1000 T11171139
                 =
2018-01-18 22:39 METAR KCON 190339Z AUTO 00000KT 1 3/4SM HZ CLR M12/M14 A2993 =
2018-01-18 21:51 METAR KCON 190251Z AUTO 00000KT 8SM CLR M12/M14 A2993 RMK AO2 SLP141 I1000 I3000
                 T11171139 53008 =
2018-01-18 20:51 METAR KCON 190151Z AUTO 00000KT 8SM CLR M10/M13 A2991 RMK AO2 SLP135 T11001128 =
2018-01-18 19:51 METAR KCON 190051Z AUTO 00000KT 10SM CLR M08/M11 A2990 RMK AO2 SLP132 T10831106
                 =
2018-01-18 18:51 METAR KCON 182351Z AUTO 00000KT 5SM HZ CLR M05/M09 A2990 RMK AO2 SLP133
                 T10501089 11022 21067 53016 =
2018-01-18 17:51 METAR KCON 182251Z AUTO 31004KT 10SM CLR M04/M09 A2988 RMK AO2 SLP123 T10441089
                 =
2018-01-18 16:51 METAR KCON 182151Z AUTO 32007KT 10SM OVC036 M03/M08 A2986 RMK AO2 SLP119
                 T10331083 =
2018-01-18 15:51 METAR KCON 182051Z AUTO 32012KT 10SM FEW033 M03/M09 A2986 RMK AO2 SLP116
                 T10281089 55010 =
2018-01-18 14:51 METAR KCON 181951Z AUTO 32012KT 10SM CLR M02/M09 A2985 RMK AO2 SLP112 T10221089
                 =
2018-01-18 13:51 METAR KCON 181851Z AUTO 29013KT 10SM CLR M03/M09 A2986 RMK AO2 SLP117 T10281089
                 =
2018-01-18 12:51 METAR KCON 181751Z AUTO 30008KT 8SM CLR M03/M09 A2989 RMK AO2 SLP126 T10331094
                 11033 21100 58025 =
2018-01-18 12:40 METAR KCON 181740Z AUTO 31012KT 1 1/4SM HZ CLR M03/M09 A2990 =
2018-01-18 11:51 METAR KCON 181651Z AUTO 30009KT 10SM CLR M04/M10 A2992 RMK AO2 SLP138 T10441100
                 =
2018-01-18 10:51 METAR KCON 181551Z AUTO 31009KT 10SM CLR M06/M10 A2995 RMK AO2 SLP148 T10561100
                 =
2018-01-18 09:51 METAR KCON 181451Z AUTO 30006KT 10SM CLR M07/M11 A2996 RMK AO2 SLP151 T10671106
                 51003 =
2018-01-18 08:51 METAR KCON 181351Z AUTO 31009KT 10SM CLR M08/M12 A2996 RMK AO2 SLP150 T10831117
                 =
2018-01-18 07:51 METAR KCON 181251Z AUTO 28003KT 10SM CLR M09/M12 A2996 RMK AO2 SLP150 T10941122
                 =
2018-01-18 06:51 METAR KCON 181151Z AUTO 30006KT 10SM CLR M10/M12 A2995 RMK AO2 SLP149 70008
                 I6001 T11001122 11061 21133 56007 =
2018-01-18 05:51 METAR KCON 181051Z AUTO 30006KT 9SM CLR M11/M12 A2996 RMK AO2 SLP150 I1001
                 T11061122 =
2018-01-18 04:51 METAR KCON 180951Z AUTO 00000KT 7SM CLR M11/M13 A2996 RMK AO2 SLP153 T11111133 =
2018-01-18 03:51 METAR KCON 180851Z AUTO 00000KT 10SM CLR M10/M12 A2997 RMK AO2 SLP155 I3000
                 T11001117 56016 =
2018-01-18 02:51 METAR KCON 180751Z AUTO 34004KT 10SM CLR M09/M11 A2999 RMK AO2 SLP161 T10891111
                 =
2018-01-18 01:51 METAR KCON 180651Z AUTO 27004KT 9SM CLR M11/M11 A3000 RMK AO2 SLP163 I1000
                 T11061111 =
2018-01-18 01:36 METAR KCON 180636Z AUTO 30005KT 6SM BR CLR M08/M10 A3000 RMK AO2 T10831100 =
2018-01-18 01:27 METAR KCON 180627Z AUTO 28003KT 2SM BR CLR M08/M11 A3000 RMK AO2 T10831106 =
2018-01-18 00:51 METAR KCON 180551Z AUTO 28003KT 10SM CLR M07/M08 A3002 RMK AO2 SLP171 60000
                 T10671083 11017 21067 58014 =
2018-01-18 00:09 METAR KCON 180509Z AUTO 32004KT 10SM SCT022 M05/M07 A3004 RMK AO2 T10501072 =
2018-01-17 23:51 METAR KCON 180451Z AUTO 28005KT 10SM BKN022 M03/M06 A3005 RMK AO2 SLP180
                 T10331061 410111039 =

Support USWX by starting your Amazon purchase here.